Temp: 19.6°C   Baro: 1009.8mb
  Wind: 4.0mph   Dir: S (183°)
  Rain: 0.0mm (0.0mm/hr)
  Sun: 202W/m2  Humidity: 84%

Historic data

Bath Spa Weather Station Historical Data
Daily Summary for June 04, 2023 Units:  Metric    English   Both
Daily Weekly Monthly Yearly Custom
  High: Low: Average:
Temperature: 25.3 °C 8.8 °C 17 °C
Dew Point: 11.9 °C 6.8 °C 9.8 °C
Humidity: 88% 40.8% 65%
Wind Speed: 16.4km/h 1.9km/h 7.1km/h
Wind Gust: 30.6km/h - -
Wind- - ENE
Pressure: 1024.9 hPa 1022.6 hPa -
Precipitation: 0 mm    
Historical Graphs
 
 
Tabular Data for June 04, 2023
Time Temperature Dew Point Pressure Wind Wind Speed Wind Gust Humidity Rainfall Rate (Hourly) solar
00:09 14.9 °C 10.6 °C 1023.9 hPa NNE 8 km/h 17.7 km/h 75.6% 0 mm 0 W/m2
00:14 14.7 °C 10.4 °C 1023.9 hPa NE 7.2 km/h 20.9 km/h 75.6% 0 mm 0 W/m2
00:19 14.6 °C 10.4 °C 1023.9 hPa NE 8 km/h 19.3 km/h 76% 0 mm 0 W/m2
00:24 14.6 °C 10.4 °C 1023.9 hPa ENE 12.2 km/h 20.9 km/h 76% 0 mm 0 W/m2
00:29 14.4 °C 10.2 °C 1023.9 hPa NE 6.6 km/h 14.5 km/h 76% 0 mm 0 W/m2
00:34 14.3 °C 10.2 °C 1023.9 hPa NE 10 km/h 16.1 km/h 76% 0 mm 0 W/m2
00:39 14.2 °C 10 °C 1023.9 hPa NE 10 km/h 22.5 km/h 76.4% 0 mm 0 W/m2
00:44 13.9 °C 9.8 °C 1023.9 hPa ENE 9.5 km/h 22.5 km/h 76.8% 0 mm 0 W/m2
00:49 13.7 °C 9.7 °C 1023.9 hPa NE 6.8 km/h 20.9 km/h 77% 0 mm 0 W/m2
00:54 13.5 °C 9.5 °C 1024.3 hPa NNE 5.1 km/h 19.3 km/h 77% 0 mm 0 W/m2
00:59 13.4 °C 9.4 °C 1024.3 hPa NE 5.5 km/h 16.1 km/h 77% 0 mm 0 W/m2
01:04 13.3 °C 9.4 °C 1023.9 hPa NE 5.1 km/h 12.9 km/h 77.2% 0 mm 0 W/m2
01:09 13.2 °C 9.4 °C 1024.3 hPa NE 6.4 km/h 12.9 km/h 78% 0 mm 0 W/m2
01:14 13.1 °C 9.3 °C 1024.3 hPa ENE 7.9 km/h 14.5 km/h 77.6% 0 mm 0 W/m2
01:19 13.1 °C 9.3 °C 1024.3 hPa NE 5 km/h 14.5 km/h 78% 0 mm 0 W/m2
01:24 12.9 °C 9.2 °C 1024.3 hPa NE 6.8 km/h 14.5 km/h 78% 0 mm 0 W/m2
01:29 12.8 °C 9.1 °C 1024.3 hPa NE 6.8 km/h 16.1 km/h 78% 0 mm 0 W/m2
01:34 12.7 °C 9 °C 1024.3 hPa NE 5.8 km/h 14.5 km/h 78% 0 mm 0 W/m2
01:39 12.6 °C 8.9 °C 1024.3 hPa NE 5.1 km/h 12.9 km/h 78% 0 mm 0 W/m2
01:44 12.4 °C 8.7 °C 1024.3 hPa NNE 5.3 km/h 12.9 km/h 78% 0 mm 0 W/m2
01:49 12.3 °C 8.6 °C 1024.3 hPa ENE 5 km/h 12.9 km/h 78% 0 mm 0 W/m2
01:54 12.2 °C 8.5 °C 1024.3 hPa NE 5.1 km/h 19.3 km/h 78% 0 mm 0 W/m2
01:59 12.2 °C 8.4 °C 1024.3 hPa NNE 6.4 km/h 14.5 km/h 78% 0 mm 0 W/m2
02:04 12.1 °C 8.3 °C 1024.3 hPa NE 4.8 km/h 12.9 km/h 78% 0 mm 0 W/m2
02:09 11.9 °C 8.4 °C 1024.3 hPa ENE 3.7 km/h 14.5 km/h 78.8% 0 mm 0 W/m2
02:14 11.8 °C 8.3 °C 1024.3 hPa NE 4 km/h 11.3 km/h 79% 0 mm 0 W/m2
02:19 11.7 °C 8.3 °C 1024.3 hPa ENE 6 km/h 12.9 km/h 79.4% 0 mm 0 W/m2
02:24 11.7 °C 8.3 °C 1024.3 hPa NE 4.5 km/h 16.1 km/h 80% 0 mm 0 W/m2
02:29 11.6 °C 8.3 °C 1024.3 hPa ENE 4 km/h 17.7 km/h 80% 0 mm 0 W/m2
02:34 11.4 °C 8.3 °C 1024.3 hPa NE 6 km/h 17.7 km/h 80.8% 0 mm 0 W/m2
02:39 11.3 °C 8.3 °C 1023.9 hPa ENE 6 km/h 17.7 km/h 81% 0 mm 0 W/m2
02:44 11.3 °C 8.2 °C 1024.3 hPa ENE 4.7 km/h 17.7 km/h 81% 0 mm 0 W/m2
02:49 11.2 °C 8.2 °C 1024.3 hPa ENE 3.7 km/h 9.7 km/h 81.4% 0 mm 0 W/m2
02:54 11.2 °C 8.2 °C 1024.3 hPa NE 6.8 km/h 14.5 km/h 82% 0 mm 0 W/m2
02:59 11.1 °C 8.1 °C 1023.9 hPa ENE 4 km/h 12.9 km/h 82% 0 mm 0 W/m2
03:04 10.9 °C 7.9 °C 1023.9 hPa NE 5.5 km/h 14.5 km/h 82% 0 mm 0 W/m2
03:09 10.8 °C 8 °C 1023.9 hPa NE 2.7 km/h 14.5 km/h 82.8% 0 mm 0 W/m2
03:14 10.8 °C 8 °C 1024.3 hPa East 5.3 km/h 17.7 km/h 83% 0 mm 0 W/m2
03:19 10.7 °C 7.9 °C 1024.3 hPa ENE 4.5 km/h 22.5 km/h 83% 0 mm 0 W/m2
03:24 10.7 °C 7.9 °C 1024.3 hPa East 5.8 km/h 20.9 km/h 83% 0 mm 0 W/m2
03:29 10.6 °C 7.9 °C 1024.3 hPa ENE 3.9 km/h 9.7 km/h 83.8% 0 mm 0 W/m2
03:34 10.6 °C 8 °C 1024.3 hPa East 4.5 km/h 9.7 km/h 84% 0 mm 0 W/m2
03:39 10.4 °C 7.8 °C 1024.3 hPa East 6.3 km/h 14.5 km/h 84% 0 mm 0 W/m2
03:44 10.4 °C 7.8 °C 1024.3 hPa NE 6.3 km/h 14.5 km/h 84% 0 mm 0 W/m2
03:49 10.3 °C 7.7 °C 1024.3 hPa ESE 6.3 km/h 17.7 km/h 84% 0 mm 0 W/m2
03:54 10.2 °C 7.7 °C 1024.3 hPa East 3.4 km/h 14.5 km/h 84.6% 0 mm 0 W/m2
03:59 10.2 °C 7.8 °C 1024.3 hPa East 5.6 km/h 14.5 km/h 85% 0 mm 0 W/m2
04:04 10.1 °C 7.7 °C 1024.3 hPa ENE 5.8 km/h 12.9 km/h 85% 0 mm 0 W/m2
04:09 10 °C 7.6 °C 1024.3 hPa ENE 5 km/h 16.1 km/h 85% 0 mm 0 W/m2
04:14 9.9 °C 7.5 °C 1024.3 hPa ENE 5.5 km/h 16.1 km/h 85% 0 mm 0 W/m2
04:19 9.8 °C 7.4 °C 1024.3 hPa ENE 4.7 km/h 11.3 km/h 85% 0 mm 0 W/m2
04:24 9.8 °C 7.4 °C 1024.3 hPa ENE 6.8 km/h 16.1 km/h 85% 0 mm 0 W/m2
04:29 9.7 °C 7.4 °C 1024.3 hPa East 5 km/h 14.5 km/h 85.6% 0 mm 0 W/m2
04:34 9.7 °C 7.5 °C 1024.3 hPa ENE 6.3 km/h 16.1 km/h 86% 0 mm 0 W/m2
04:39 9.6 °C 7.4 °C 1024.3 hPa East 3.2 km/h 9.7 km/h 86% 0 mm 0 W/m2
04:44 9.6 °C 7.4 °C 1024.3 hPa ESE 2.6 km/h 11.3 km/h 86% 0 mm 0 W/m2
04:49 9.6 °C 7.3 °C 1024.3 hPa East 5.1 km/h 14.5 km/h 86% 0 mm 0 W/m2
04:54 9.4 °C 7.2 °C 1024.3 hPa ENE 6 km/h 16.1 km/h 86% 0 mm 0 W/m2
04:59 9.4 °C 7.2 °C 1024.3 hPa East 5.8 km/h 14.5 km/h 86.4% 0 mm 5 W/m2
05:04 9.3 °C 7.2 °C 1024.3 hPa East 5.3 km/h 11.3 km/h 87% 0 mm 5 W/m2
05:09 9.3 °C 7.2 °C 1024.3 hPa East 3.1 km/h 9.7 km/h 87% 0 mm 7 W/m2
05:14 9.2 °C 7.1 °C 1024.3 hPa ENE 6.6 km/h 11.3 km/h 87% 0 mm 11 W/m2
05:19 9.1 °C 7.1 °C 1024.3 hPa SE 3.5 km/h 8 km/h 87% 0 mm 12 W/m2
05:24 9.1 °C 7.1 °C 1024.3 hPa NE 4.5 km/h 8 km/h 87% 0 mm 14 W/m2
05:29 9 °C 7 °C 1024.3 hPa East 2.9 km/h 9.7 km/h 87% 0 mm 18 W/m2
05:34 8.9 °C 6.9 °C 1024.3 hPa ENE 2.1 km/h 16.1 km/h 87% 0 mm 19 W/m2
05:39 8.9 °C 6.9 °C 1024.3 hPa ENE 3.7 km/h 8 km/h 87% 0 mm 23 W/m2
05:44 8.9 °C 6.9 °C 1024.3 hPa East 5.8 km/h 12.9 km/h 87% 0 mm 25 W/m2
05:49 8.8 °C 6.8 °C 1024.3 hPa ESE 4.2 km/h 16.1 km/h 87% 0 mm 28 W/m2
05:54 8.8 °C 6.8 °C 1024.3 hPa ENE 5.1 km/h 14.5 km/h 87.4% 0 mm 30 W/m2
05:59 8.8 °C 6.9 °C 1024.3 hPa East 7.9 km/h 16.1 km/h 87.8% 0 mm 33 W/m2
06:04 8.8 °C 6.9 °C 1024.3 hPa East 3.9 km/h 16.1 km/h 88% 0 mm 35 W/m2
06:09 8.8 °C 6.9 °C 1024.3 hPa ENE 8.2 km/h 12.9 km/h 88% 0 mm 37 W/m2
06:14 8.9 °C 7 °C 1024.3 hPa ESE 5 km/h 12.9 km/h 88% 0 mm 40 W/m2
06:19 8.9 °C 7 °C 1024.3 hPa East 4.5 km/h 9.7 km/h 88% 0 mm 46 W/m2
06:24 8.9 °C 7.1 °C 1024.3 hPa East 3.9 km/h 16.1 km/h 88% 0 mm 53 W/m2
06:29 9 °C 7.1 °C 1024.3 hPa East 2.9 km/h 9.7 km/h 87.8% 0 mm 63 W/m2
06:34 9.1 °C 7.2 °C 1024.6 hPa ENE 8.5 km/h 12.9 km/h 88% 0 mm 74 W/m2
06:39 9.2 °C 7.2 °C 1024.6 hPa ENE 5 km/h 14.5 km/h 87.8% 0 mm 86 W/m2
06:44 9.3 °C 7.2 °C 1024.6 hPa ENE 4.5 km/h 11.3 km/h 87% 0 mm 97 W/m2
06:49 9.3 °C 7.2 °C 1024.3 hPa ENE 6.8 km/h 12.9 km/h 87% 0 mm 113 W/m2
06:54 9.4 °C 7.3 °C 1024.3 hPa ENE 6 km/h 14.5 km/h 87% 0 mm 127 W/m2
06:59 9.6 °C 7.4 °C 1024.3 hPa East 4.3 km/h 14.5 km/h 87% 0 mm 139 W/m2
07:04 9.7 °C 7.5 °C 1024.3 hPa East 4.5 km/h 11.3 km/h 86.2% 0 mm 153 W/m2
07:09 9.8 °C 7.6 °C 1024.6 hPa East 4.7 km/h 19.3 km/h 86% 0 mm 167 W/m2
07:14 9.9 °C 7.7 °C 1024.6 hPa East 6.8 km/h 14.5 km/h 86% 0 mm 181 W/m2
07:19 10.1 °C 7.8 °C 1024.3 hPa ENE 6 km/h 14.5 km/h 86% 0 mm 197 W/m2
07:24 10.2 °C 7.8 °C 1024.6 hPa ENE 5.3 km/h 14.5 km/h 85.2% 0 mm 209 W/m2
07:29 10.3 °C 7.9 °C 1024.6 hPa NNE 6.8 km/h 22.5 km/h 85% 0 mm 225 W/m2
07:34 10.4 °C 7.9 °C 1024.3 hPa East 7.6 km/h 19.3 km/h 84.2% 0 mm 239 W/m2
07:39 10.6 °C 8 °C 1024.3 hPa NNE 7.4 km/h 19.3 km/h 84% 0 mm 251 W/m2
07:44 10.7 °C 7.9 °C 1024.3 hPa NE 6.3 km/h 19.3 km/h 83% 0 mm 265 W/m2
07:49 10.8 °C 8.1 °C 1024.6 hPa NE 8.7 km/h 16.1 km/h 83% 0 mm 281 W/m2
07:54 10.9 °C 7.9 °C 1024.3 hPa ENE 5.1 km/h 17.7 km/h 82% 0 mm 297 W/m2
07:59 11.2 °C 8.2 °C 1024.6 hPa ESE 5.5 km/h 11.3 km/h 82% 0 mm 309 W/m2
08:04 11.4 °C 8.3 °C 1024.6 hPa East 1.9 km/h 6.4 km/h 81.2% 0 mm 323 W/m2
08:09 11.6 °C 8.5 °C 1024.6 hPa NE 6 km/h 11.3 km/h 81% 0 mm 345 W/m2
08:14 11.7 °C 8.4 °C 1024.6 hPa NNE 8.4 km/h 19.3 km/h 80.2% 0 mm 359 W/m2
08:19 11.8 °C 8.4 °C 1024.6 hPa ENE 5.8 km/h 16.1 km/h 79.8% 0 mm 371 W/m2
08:24 11.9 °C 8.4 °C 1024.6 hPa East 4.5 km/h 16.1 km/h 79% 0 mm 387 W/m2
08:29 12.2 °C 8.6 °C 1024.6 hPa ENE 4.8 km/h 16.1 km/h 78.6% 0 mm 399 W/m2
08:34 12.4 °C 8.7 °C 1024.6 hPa NNE 4.8 km/h 11.3 km/h 78% 0 mm 415 W/m2
08:39 12.7 °C 8.9 °C 1024.6 hPa East 3.2 km/h 11.3 km/h 77.8% 0 mm 424 W/m2
08:44 12.9 °C 9 °C 1024.6 hPa NE 10 km/h 14.5 km/h 77% 0 mm 436 W/m2
08:49 13.1 °C 9 °C 1024.6 hPa NE 8 km/h 19.3 km/h 75.8% 0 mm 454 W/m2
08:54 13.3 °C 9 °C 1024.6 hPa NNE 9 km/h 24.1 km/h 75% 0 mm 461 W/m2
08:59 13.4 °C 8.9 °C 1024.6 hPa ENE 5.6 km/h 20.9 km/h 74% 0 mm 473 W/m2
09:04 13.7 °C 9.2 °C 1024.6 hPa NNE 9 km/h 24.1 km/h 74% 0 mm 487 W/m2
09:09 13.9 °C 9.1 °C 1024.6 hPa NE 10 km/h 22.5 km/h 73% 0 mm 508 W/m2
09:14 14.2 °C 9.3 °C 1024.6 hPa NE 8.4 km/h 16.1 km/h 72.3% 0 mm 512 W/m2
09:19 14.4 °C 9.4 °C 1024.6 hPa ENE 11.9 km/h 22.5 km/h 71.8% 0 mm 526 W/m2
09:24 14.7 °C 9.4 °C 1024.3 hPa NE 12.6 km/h 22.5 km/h 70.8% 0 mm 538 W/m2
09:29 14.8 °C 9.4 °C 1024.3 hPa NE 5.6 km/h 17.7 km/h 70.4% 0 mm 547 W/m2
09:34 15.1 °C 9.8 °C 1024.3 hPa ENE 5.1 km/h 16.1 km/h 70.4% 0 mm 557 W/m2
09:39 15.5 °C 10 °C 1024.3 hPa ENE 8.4 km/h 17.7 km/h 69.8% 0 mm 571 W/m2
09:44 16.1 °C 10.2 °C 1024.3 hPa East 8.7 km/h 20.9 km/h 68.4% 0 mm 580 W/m2
09:49 16.3 °C 10.3 °C 1024.3 hPa East 10.9 km/h 17.7 km/h 67.4% 0 mm 594 W/m2
09:54 16.8 °C 10.6 °C 1024.3 hPa East 3.4 km/h 20.9 km/h 67% 0 mm 605 W/m2
09:59 16.8 °C 10.3 °C 1024.3 hPa NNE 6.9 km/h 25.7 km/h 65.2% 0 mm 619 W/m2
10:04 16.5 °C 10.4 °C 1024.3 hPa NNE 6 km/h 19.3 km/h 67.2% 0 mm 629 W/m2
10:09 16.6 °C 10.7 °C 1024.3 hPa NNE 9.7 km/h 17.7 km/h 67.8% 0 mm 640 W/m2
10:14 17.1 °C 10.9 °C 1024.3 hPa ESE 5.8 km/h 19.3 km/h 66.8% 0 mm 652 W/m2
10:19 17.1 °C 10.7 °C 1024.3 hPa NNE 6.9 km/h 17.7 km/h 65.6% 0 mm 659 W/m2
10:24 17.2 °C 10.8 °C 1024.3 hPa NE 7.6 km/h 17.7 km/h 66% 0 mm 671 W/m2
10:29 17.5 °C 10.6 °C 1024.3 hPa ESE 11.9 km/h 25.7 km/h 63.6% 0 mm 680 W/m2
10:34 17.9 °C 10.3 °C 1024.6 hPa East 11.1 km/h 30.6 km/h 61% 0 mm 691 W/m2
10:39 17.9 °C 9.9 °C 1024.3 hPa SE 13.5 km/h 22.5 km/h 59.6% 0 mm 701 W/m2
10:44 17.7 °C 9.8 °C 1024.3 hPa ESE 7.9 km/h 17.7 km/h 60.2% 0 mm 707 W/m2
10:49 17.8 °C 10.3 °C 1024.6 hPa ENE 8.2 km/h 16.1 km/h 61.8% 0 mm 714 W/m2
10:54 18.3 °C 10.3 °C 1024.6 hPa NNE 9.5 km/h 17.7 km/h 59.6% 0 mm 722 W/m2
10:59 18.6 °C 10.2 °C 1024.6 hPa NNE 10.1 km/h 25.7 km/h 58.2% 0 mm 729 W/m2
11:04 18.4 °C 10.1 °C 1024.6 hPa NE 4.3 km/h 19.3 km/h 58.4% 0 mm 740 W/m2
11:09 18.7 °C 10.4 °C 1024.6 hPa ENE 12.6 km/h 20.9 km/h 58.4% 0 mm 751 W/m2
11:14 19.2 °C 10.4 °C 1024.6 hPa East 16.4 km/h 24.1 km/h 56.8% 0 mm 758 W/m2
11:19 19.2 °C 10.2 °C 1024.6 hPa NE 11.6 km/h 24.1 km/h 56% 0 mm 766 W/m2
11:24 19 °C 10.1 °C 1024.6 hPa East 12.7 km/h 22.5 km/h 56.2% 0 mm 773 W/m2
11:29 19.2 °C 10.2 °C 1024.6 hPa East 14.5 km/h 25.7 km/h 56.2% 0 mm 780 W/m2
11:34 19.2 °C 10.2 °C 1024.6 hPa ENE 10 km/h 24.1 km/h 56% 0 mm 786 W/m2
11:39 19.4 °C 10.5 °C 1024.6 hPa East 10 km/h 20.9 km/h 56.2% 0 mm 793 W/m2
11:44 19.9 °C 10.9 °C 1024.6 hPa East 11.3 km/h 22.5 km/h 55.8% 0 mm 798 W/m2
11:49 19.9 °C 10.8 °C 1024.6 hPa NNE 11.3 km/h 19.3 km/h 55.8% 0 mm 803 W/m2
11:54 19.8 °C 11 °C 1024.6 hPa ENE 6.9 km/h 24.1 km/h 57% 0 mm 809 W/m2
11:59 20 °C 11.2 °C 1024.6 hPa NE 6.8 km/h 22.5 km/h 57% 0 mm 816 W/m2
12:04 20.3 °C 11.2 °C 1024.3 hPa ESE 4.7 km/h 16.1 km/h 56% 0 mm 821 W/m2
12:09 20.6 °C 11.2 °C 1024.3 hPa East 8.2 km/h 17.7 km/h 55% 0 mm 826 W/m2
12:14 20.8 °C 11 °C 1024.6 hPa East 6.8 km/h 16.1 km/h 53.2% 0 mm 828 W/m2
12:19 21.2 °C 11.2 °C 1024.3 hPa ENE 10.5 km/h 25.7 km/h 53% 0 mm 831 W/m2
12:24 21.3 °C 11.3 °C 1024.6 hPa NE 4.3 km/h 16.1 km/h 52.8% 0 mm 835 W/m2
12:29 21.3 °C 11 °C 1024.6 hPa ENE 11.6 km/h 19.3 km/h 51.8% 0 mm 840 W/m2
12:34 21.3 °C 10.8 °C 1024.6 hPa ENE 8.9 km/h 22.5 km/h 51.2% 0 mm 840 W/m2
12:39 21.4 °C 11.1 °C 1024.6 hPa ENE 5.6 km/h 22.5 km/h 51.8% 0 mm 846 W/m2
12:44 21.7 °C 11.1 °C 1024.3 hPa East 8.2 km/h 20.9 km/h 50.8% 0 mm 849 W/m2
12:49 22 °C 10.9 °C 1024.3 hPa ESE 7.9 km/h 20.9 km/h 49.2% 0 mm 849 W/m2
12:54 22.1 °C 10.6 °C 1024.3 hPa ENE 9.3 km/h 22.5 km/h 48% 0 mm 851 W/m2
12:59 21.8 °C 10.6 °C 1024.3 hPa NE 10.6 km/h 25.7 km/h 49% 0 mm 851 W/m2
13:04 21.7 °C 10.7 °C 1024.3 hPa ENE 10 km/h 19.3 km/h 49.6% 0 mm 854 W/m2
13:09 21.8 °C 10.4 °C 1024.3 hPa ENE 10.3 km/h 19.3 km/h 48.4% 0 mm 853 W/m2
13:14 22.2 °C 10.7 °C 1023.9 hPa East 5.8 km/h 16.1 km/h 47.8% 0 mm 856 W/m2
13:19 22.1 °C 10.8 °C 1023.9 hPa East 11.4 km/h 17.7 km/h 48.6% 0 mm 856 W/m2
13:24 22.1 °C 10.9 °C 1023.9 hPa NE 8.2 km/h 16.1 km/h 49.2% 0 mm 856 W/m2
13:29 22.2 °C 11.2 °C 1023.9 hPa ESE 8.2 km/h 19.3 km/h 49.8% 0 mm 858 W/m2
13:34 21.9 °C 11 °C 1023.9 hPa NNE 11.3 km/h 27.4 km/h 50% 0 mm 856 W/m2
13:39 21.5 °C 10.8 °C 1023.9 hPa East 11.3 km/h 19.3 km/h 50.6% 0 mm 856 W/m2
13:44 21.8 °C 10.5 °C 1023.9 hPa NE 9 km/h 20.9 km/h 48.6% 0 mm 856 W/m2
13:49 22.3 °C 10.8 °C 1023.9 hPa NNE 8.9 km/h 22.5 km/h 48% 0 mm 856 W/m2
13:54 22.2 °C 10.6 °C 1023.9 hPa NE 6.1 km/h 22.5 km/h 47.8% 0 mm 854 W/m2
13:59 22.8 °C 11 °C 1023.9 hPa ENE 8.4 km/h 16.1 km/h 47.2% 0 mm 851 W/m2
14:04 22.9 °C 10.4 °C 1023.9 hPa NNE 7.7 km/h 16.1 km/h 45.2% 0 mm 849 W/m2
14:09 23.2 °C 10.9 °C 1023.9 hPa East 7.2 km/h 14.5 km/h 46% 0 mm 847 W/m2
14:14 23.4 °C 11 °C 1023.9 hPa ENE 7.1 km/h 14.5 km/h 45.6% 0 mm 846 W/m2
14:19 23.5 °C 11.2 °C 1023.9 hPa East 5.6 km/h 16.1 km/h 46% 0 mm 840 W/m2
14:24 23.5 °C 11 °C 1023.9 hPa NNE 10.3 km/h 16.1 km/h 45.2% 0 mm 835 W/m2
14:29 23.6 °C 10.8 °C 1023.9 hPa NNE 10.3 km/h 22.5 km/h 44.6% 0 mm 833 W/m2
14:34 23.7 °C 10.9 °C 1023.9 hPa NE 8.4 km/h 17.7 km/h 44.8% 0 mm 826 W/m2
14:39 23.6 °C 11 °C 1023.9 hPa NNE 9.3 km/h 19.3 km/h 45.2% 0 mm 823 W/m2
14:44 23.1 °C 10.9 °C 1023.9 hPa NE 7.7 km/h 16.1 km/h 46.4% 0 mm 817 W/m2
14:49 23.1 °C 11 °C 1023.9 hPa ENE 6.4 km/h 17.7 km/h 46.6% 0 mm 812 W/m2
14:54 23.3 °C 11 °C 1023.9 hPa NNE 14.8 km/h 22.5 km/h 45.8% 0 mm 810 W/m2
14:59 23.6 °C 10.8 °C 1023.6 hPa NE 8.5 km/h 19.3 km/h 44.6% 0 mm 802 W/m2
15:04 23.7 °C 10.8 °C 1023.9 hPa NNE 11.4 km/h 22.5 km/h 44.2% 0 mm 795 W/m2
15:09 23.3 °C 10.5 °C 1023.9 hPa NE 10 km/h 24.1 km/h 44.4% 0 mm 789 W/m2
15:14 23.4 °C 10.3 °C 1023.9 hPa ENE 6.8 km/h 19.3 km/h 43.4% 0 mm 782 W/m2
15:19 23.4 °C 10 °C 1023.9 hPa NE 10 km/h 22.5 km/h 42.6% 0 mm 777 W/m2
15:24 23.6 °C 10.1 °C 1023.6 hPa ESE 7.2 km/h 16.1 km/h 42.4% 0 mm 770 W/m2
15:29 23.4 °C 10.1 °C 1023.6 hPa ESE 11.4 km/h 24.1 km/h 43% 0 mm 765 W/m2
15:34 23.8 °C 10.5 °C 1023.6 hPa NE 9.3 km/h 19.3 km/h 43% 0 mm 758 W/m2
15:39 24.2 °C 10.3 °C 1023.9 hPa ENE 9.5 km/h 24.1 km/h 41.6% 0 mm 749 W/m2
15:44 24 °C 10.2 °C 1023.6 hPa NNE 10.9 km/h 20.9 km/h 41.8% 0 mm 742 W/m2
15:49 23.9 °C 10.4 °C 1023.6 hPa NE 8.4 km/h 16.1 km/h 42.6% 0 mm 729 W/m2
15:54 24.3 °C 10.4 °C 1023.6 hPa NE 7.2 km/h 17.7 km/h 41.4% 0 mm 722 W/m2
15:59 24.3 °C 10.2 °C 1023.6 hPa NNE 11.6 km/h 20.9 km/h 40.8% 0 mm 712 W/m2
16:04 23.9 °C 10.1 °C 1023.6 hPa NNE 7.9 km/h 17.7 km/h 41.6% 0 mm 703 W/m2
16:09 24.2 °C 10.6 °C 1023.6 hPa NE 8.7 km/h 19.3 km/h 42% 0 mm 696 W/m2
16:14 24.3 °C 10.6 °C 1023.6 hPa NNE 7.7 km/h 20.9 km/h 42% 0 mm 687 W/m2
16:19 24.1 °C 10.6 °C 1023.6 hPa NE 8.4 km/h 16.1 km/h 42.8% 0 mm 675 W/m2
16:24 24.3 °C 10.8 °C 1023.6 hPa ENE 6.4 km/h 16.1 km/h 42.6% 0 mm 666 W/m2
16:29 24.2 °C 10.4 °C 1023.6 hPa NNE 4.3 km/h 16.1 km/h 42% 0 mm 657 W/m2
16:34 24.6 °C 11.4 °C 1023.6 hPa NE 9.5 km/h 19.3 km/h 43.6% 0 mm 647 W/m2
16:39 24.9 °C 11.2 °C 1023.2 hPa NE 10.1 km/h 22.5 km/h 42.2% 0 mm 636 W/m2
16:44 24.7 °C 11.2 °C 1023.2 hPa NE 12.9 km/h 24.1 km/h 42.8% 0 mm 624 W/m2
16:49 24.7 °C 11.3 °C 1023.2 hPa NE 5.1 km/h 22.5 km/h 43.2% 0 mm 613 W/m2
16:54 24.7 °C 11.4 °C 1023.2 hPa ENE 9 km/h 17.7 km/h 43.4% 0 mm 603 W/m2
16:59 25 °C 11.6 °C 1023.2 hPa East 8.2 km/h 16.1 km/h 43% 0 mm 591 W/m2
17:04 25.3 °C 11.8 °C 1023.2 hPa NE 4.7 km/h 11.3 km/h 43% 0 mm 580 W/m2
17:09 25 °C 11.7 °C 1023.2 hPa NNE 11.7 km/h 20.9 km/h 43.4% 0 mm 568 W/m2
17:14 24.1 °C 11.2 °C 1023.2 hPa NNE 8.7 km/h 19.3 km/h 44.4% 0 mm 554 W/m2
17:19 23.9 °C 11.6 °C 1023.2 hPa NE 4.8 km/h 17.7 km/h 46% 0 mm 541 W/m2
17:24 24.1 °C 11.8 °C 1022.9 hPa ENE 9.8 km/h 16.1 km/h 46% 0 mm 529 W/m2
17:29 24.3 °C 11.5 °C 1023.2 hPa ENE 5.3 km/h 16.1 km/h 44.6% 0 mm 520 W/m2
17:34 24.4 °C 11.3 °C 1023.2 hPa NE 7.4 km/h 19.3 km/h 43.8% 0 mm 510 W/m2
17:39 24.1 °C 11.4 °C 1022.9 hPa NE 13.2 km/h 24.1 km/h 45.2% 0 mm 497 W/m2
17:44 23.9 °C 11.7 °C 1022.9 hPa NE 5.3 km/h 14.5 km/h 46.2% 0 mm 483 W/m2
17:49 23.9 °C 11.6 °C 1022.9 hPa NE 6.6 km/h 16.1 km/h 45.8% 0 mm 471 W/m2
17:54 24 °C 11.7 °C 1022.9 hPa NE 9 km/h 20.9 km/h 46% 0 mm 459 W/m2
17:59 24 °C 11.7 °C 1022.9 hPa NNE 4 km/h 14.5 km/h 46% 0 mm 445 W/m2
18:04 24.2 °C 11.8 °C 1022.9 hPa ENE 9 km/h 19.3 km/h 46% 0 mm 431 W/m2
18:09 24.2 °C 11.9 °C 1022.9 hPa ENE 7.9 km/h 19.3 km/h 46.4% 0 mm 420 W/m2
18:14 23.9 °C 11.9 °C 1022.9 hPa ENE 10.5 km/h 22.5 km/h 46.8% 0 mm 404 W/m2
18:19 23.8 °C 11.8 °C 1022.9 hPa East 9.7 km/h 17.7 km/h 47% 0 mm 392 W/m2
18:24 23.8 °C 11.8 °C 1022.9 hPa East 7.7 km/h 16.1 km/h 47% 0 mm 378 W/m2
18:29 23.7 °C 11.7 °C 1022.9 hPa East 6.1 km/h 14.5 km/h 47% 0 mm 364 W/m2
18:33 23.6 °C 11.4 °C 1022.9 hPa NE 6 km/h 19.3 km/h 46.5% 0 mm 352 W/m2
18:39 23.4 °C 11.4 °C 1022.9 hPa NNE 7.2 km/h 17.7 km/h 47% 0 mm 341 W/m2
18:44 23.1 °C 11.4 °C 1022.9 hPa NNE 6 km/h 12.9 km/h 47.6% 0 mm 327 W/m2
18:49 23.1 °C 11.5 °C 1022.9 hPa NE 7.9 km/h 17.7 km/h 48% 0 mm 313 W/m2
18:54 23.2 °C 11.6 °C 1022.6 hPa NNE 7.1 km/h 12.9 km/h 48% 0 mm 301 W/m2
18:59 23.2 °C 11.5 °C 1022.9 hPa NE 8.7 km/h 16.1 km/h 47.8% 0 mm 287 W/m2
19:04 22.9 °C 11.2 °C 1022.9 hPa NE 8 km/h 20.9 km/h 47.6% 0 mm 276 W/m2
19:09 22.8 °C 11.2 °C 1022.9 hPa ENE 9.5 km/h 17.7 km/h 48% 0 mm 262 W/m2
19:14 22.8 °C 11.4 °C 1022.9 hPa NE 6.6 km/h 17.7 km/h 48.8% 0 mm 250 W/m2
19:19 22.7 °C 11.1 °C 1022.9 hPa NE 10.8 km/h 17.7 km/h 48.2% 0 mm 234 W/m2
19:24 22.6 °C 11.2 °C 1022.9 hPa NE 3.1 km/h 16.1 km/h 48.8% 0 mm 220 W/m2
19:29 22.6 °C 11.4 °C 1022.9 hPa NNE 6 km/h 14.5 km/h 49.4% 0 mm 202 W/m2
19:34 22.5 °C 11.6 °C 1022.9 hPa NE 6.6 km/h 17.7 km/h 50% 0 mm 188 W/m2
19:39 22.4 °C 11.5 °C 1022.9 hPa East 7.1 km/h 17.7 km/h 50% 0 mm 172 W/m2
19:44 22.3 °C 11.4 °C 1022.9 hPa NNE 6.9 km/h 17.7 km/h 50% 0 mm 156 W/m2
19:49 22.2 °C 11.3 °C 1022.9 hPa ENE 6 km/h 14.5 km/h 50% 0 mm 144 W/m2
19:54 22.1 °C 11.2 °C 1022.9 hPa ENE 6.9 km/h 14.5 km/h 50% 0 mm 130 W/m2
19:59 21.8 °C 11.1 °C 1022.9 hPa East 4.5 km/h 14.5 km/h 50.4% 0 mm 118 W/m2
20:04 21.7 °C 11.1 °C 1022.9 hPa NE 5 km/h 14.5 km/h 51% 0 mm 105 W/m2
20:09 21.6 °C 11 °C 1023.2 hPa East 5.3 km/h 12.9 km/h 51% 0 mm 93 W/m2
20:14 21.4 °C 11 °C 1022.9 hPa NE 5 km/h 11.3 km/h 51.6% 0 mm 81 W/m2
20:19 21.2 °C 11 °C 1022.9 hPa ENE 4.7 km/h 12.9 km/h 52% 0 mm 70 W/m2
20:24 21.2 °C 10.9 °C 1023.2 hPa ENE 6.8 km/h 19.3 km/h 52% 0 mm 60 W/m2
20:28 20.9 °C 11.1 °C 1023.2 hPa NE 3.2 km/h 9.7 km/h 53% 0 mm 49 W/m2
20:34 20.8 °C 10.9 °C 1023.2 hPa NE 6 km/h 17.7 km/h 53% 0 mm 42 W/m2
20:39 20.7 °C 10.9 °C 1023.2 hPa ENE 4.5 km/h 17.7 km/h 53.6% 0 mm 33 W/m2
20:44 20.3 °C 10.8 °C 1023.2 hPa NE 6.4 km/h 14.5 km/h 54% 0 mm 26 W/m2
20:49 20.1 °C 10.8 °C 1023.2 hPa NNE 3.4 km/h 12.9 km/h 55% 0 mm 21 W/m2
20:54 19.8 °C 10.6 °C 1023.2 hPa NE 5.1 km/h 14.5 km/h 55.2% 0 mm 18 W/m2
20:59 19.6 °C 10.7 °C 1023.2 hPa NE 3.4 km/h 12.9 km/h 56.2% 0 mm 14 W/m2
21:04 19.3 °C 10.7 °C 1023.2 hPa ENE 4.8 km/h 12.9 km/h 57% 0 mm 12 W/m2
21:09 19.1 °C 10.6 °C 1023.6 hPa NE 2.6 km/h 8 km/h 57.8% 0 mm 11 W/m2
21:14 18.8 °C 10.6 °C 1023.6 hPa NE 3.9 km/h 6.4 km/h 58.6% 0 mm 9 W/m2
21:19 18.7 °C 10.5 °C 1023.6 hPa NE 3.9 km/h 9.7 km/h 59.2% 0 mm 5 W/m2
21:24 18.4 °C 10.5 °C 1023.6 hPa NE 7.6 km/h 12.9 km/h 60% 0 mm 0 W/m2
21:29 18.2 °C 10.4 °C 1023.6 hPa ENE 6.6 km/h 16.1 km/h 60.6% 0 mm 0 W/m2
21:34 18 °C 10.4 °C 1023.9 hPa NE 6 km/h 17.7 km/h 61.2% 0 mm 0 W/m2
21:39 17.8 °C 10.4 °C 1023.9 hPa NNE 4 km/h 12.9 km/h 62% 0 mm 0 W/m2
21:44 17.7 °C 10.3 °C 1023.9 hPa NE 6 km/h 12.9 km/h 62.2% 0 mm 0 W/m2
21:49 17.5 °C 10.4 °C 1023.9 hPa NE 5.1 km/h 14.5 km/h 63% 0 mm 0 W/m2
21:54 17.3 °C 10.4 °C 1023.9 hPa NE 4.3 km/h 17.7 km/h 63.8% 0 mm 0 W/m2
21:59 17.2 °C 10.3 °C 1024.3 hPa NE 7.2 km/h 17.7 km/h 64% 0 mm 0 W/m2
22:04 17.1 °C 10.4 °C 1024.3 hPa NE 5.6 km/h 14.5 km/h 64.5% 0 mm 0 W/m2
22:09 16.9 °C 10.3 °C 1024.3 hPa NE 6 km/h 19.3 km/h 65% 0 mm 0 W/m2
22:14 16.9 °C 10.4 °C 1024.3 hPa East 6 km/h 11.3 km/h 65.6% 0 mm 0 W/m2
22:19 16.9 °C 10.6 °C 1024.3 hPa ENE 10.8 km/h 17.7 km/h 66% 0 mm 0 W/m2
22:24 16.9 °C 10.4 °C 1024.3 hPa NE 8.7 km/h 16.1 km/h 65.6% 0 mm 0 W/m2
22:29 16.9 °C 10.4 °C 1024.3 hPa ENE 5.8 km/h 16.1 km/h 65.6% 0 mm 0 W/m2
22:34 16.9 °C 10.5 °C 1024.3 hPa NE 4.2 km/h 12.9 km/h 66% 0 mm 0 W/m2
22:39 16.9 °C 10.5 °C 1024.6 hPa NE 4 km/h 11.3 km/h 66% 0 mm 0 W/m2
22:44 16.8 °C 10.4 °C 1024.6 hPa ENE 5.8 km/h 17.7 km/h 65.6% 0 mm 0 W/m2
22:49 16.7 °C 10.3 °C 1024.6 hPa ENE 7.1 km/h 17.7 km/h 66% 0 mm 0 W/m2
22:54 16.6 °C 10.3 °C 1024.6 hPa ENE 8.9 km/h 20.9 km/h 66.6% 0 mm 0 W/m2
22:59 16.3 °C 10.2 °C 1024.6 hPa ENE 5 km/h 19.3 km/h 67.2% 0 mm 0 W/m2
23:04 16.1 °C 10.2 °C 1024.6 hPa ENE 8.7 km/h 19.3 km/h 68% 0 mm 0 W/m2
23:09 15.8 °C 10.1 °C 1024.6 hPa ENE 8.7 km/h 19.3 km/h 68.8% 0 mm 0 W/m2
23:14 15.5 °C 10 °C 1024.6 hPa ENE 10.1 km/h 19.3 km/h 69.6% 0 mm 0 W/m2
23:19 15.3 °C 10 °C 1024.6 hPa ENE 12.2 km/h 22.5 km/h 70.8% 0 mm 0 W/m2
23:24 15.1 °C 10.1 °C 1024.6 hPa NE 7.4 km/h 19.3 km/h 71.8% 0 mm 0 W/m2
23:29 14.9 °C 9.9 °C 1024.6 hPa ENE 5.1 km/h 25.7 km/h 72% 0 mm 0 W/m2
23:34 14.7 °C 9.9 °C 1024.9 hPa ENE 10.5 km/h 25.7 km/h 72.8% 0 mm 0 W/m2
23:39 14.6 °C 9.8 °C 1024.9 hPa NE 9.3 km/h 17.7 km/h 73% 0 mm 0 W/m2
23:44 14.4 °C 9.7 °C 1024.9 hPa ENE 9.5 km/h 17.7 km/h 73.6% 0 mm 0 W/m2
23:49 14.3 °C 9.7 °C 1024.9 hPa East 7.9 km/h 16.1 km/h 74% 0 mm 0 W/m2
23:54 14.2 °C 9.6 °C 1024.9 hPa ESE 5.1 km/h 12.9 km/h 74% 0 mm 0 W/m2
23:59 14.2 °C 9.6 °C 1024.9 hPa East 6.6 km/h 16.1 km/h 74.2% 0 mm 0 W/m2
Bath Spa Weather
Compliments of Weather Underground - 2 mb